| time (UTC) | temp C | wind direction | speed KPH | gust KPH | rain 1hr cm | rain 24hr cm | rain mn cm | humidity % | barometer mb |
| 20260506020033 | 20 | 284 | 0.0 | 6.4 | 0.00 | 0.46 | 0.00 | 25 | 1008.2 |
| 20260506014530 | 21 | 306 | 4.8 | 12.9 | 0.00 | 0.61 | 0.00 | 22 | 1008.1 |
| 20260506013032 | 22 | 5 | 1.6 | 6.4 | 0.00 | 0.61 | 0.00 | 20 | 1008.2 |
| 20260506011539 | 23 | 360 | 0.0 | 6.4 | 0.00 | 0.61 | 0.00 | 18 | 1008.3 |
| 20260506010023 | 22 | 304 | 0.0 | 9.7 | 0.00 | 0.61 | 0.00 | 19 | 1008.5 |
| 20260506004535 | 23 | 327 | 0.0 | 14.5 | 0.00 | 0.66 | 0.00 | 18 | 1008.5 |
| 20260506003021 | 22 | 332 | 8.0 | 17.7 | 0.00 | 0.66 | 0.00 | 19 | 1008.4 |
| 20260506001524 | 22 | 360 | 6.4 | 12.9 | 0.00 | 0.66 | 0.00 | 19 | 1008.6 |
| 20260506000021 | 22 | 49 | 3.2 | 12.9 | 0.00 | 0.66 | 0.00 | 20 | 1008.6 |
| 20260505234517 | 22 | 20 | 9.7 | 19.3 | 0.00 | 0.66 | 0.00 | 20 | 1008.7 |
| 20260505233025 | 22 | 355 | 0.0 | 8.0 | 0.00 | 0.66 | 0.00 | 22 | 1008.7 |
| 20260505231520 | 21 | 32 | 4.8 | 19.3 | 0.00 | 0.66 | 0.00 | 21 | 1008.8 |
| 20260505230012 | 21 | 72 | 3.2 | 24.1 | 0.00 | 0.66 | 0.00 | 20 | 1009.0 |
| 20260505224511 | 21 | 87 | 0.0 | 17.7 | 0.00 | 0.66 | 0.00 | 22 | 1009.0 |
| 20260505223015 | 21 | 49 | 4.8 | 19.3 | 0.00 | 0.66 | 0.00 | 22 | 1009.1 |
| 20260505221504 | 20 | 28 | 4.8 | 19.3 | 0.00 | 0.66 | 0.00 | 25 | 1009.4 |
| 20260505220001 | 20 | 96 | 3.2 | 16.1 | 0.00 | 0.66 | 0.00 | 25 | 1009.6 |
| 20260505214602 | 19 | 25 | 0.0 | 24.1 | 0.00 | 0.66 | 0.00 | 26 | 1009.6 |
| 20260505213058 | 20 | 319 | 1.6 | 20.9 | 0.00 | 0.66 | 0.00 | 28 | 1009.8 |
| 20260505211552 | 18 | 265 | 0.0 | 11.3 | 0.00 | 0.66 | 0.00 | 34 | 1010.0 |
| 20260505210054 | 18 | 160 | 0.0 | 8.0 | 0.00 | 0.66 | 0.00 | 34 | 1010.1 |
| 20260505204557 | 18 | 290 | 0.0 | 12.9 | 0.00 | 0.66 | 0.00 | 32 | 1010.4 |
| 20260505203046 | 18 | 56 | 0.0 | 9.7 | 0.00 | 0.66 | 0.00 | 37 | 1010.5 |
| 20260505201547 | 17 | 212 | 1.6 | 9.7 | 0.00 | 0.66 | 0.00 | 37 | 1010.6 |
| 20260505200040 | 17 | 236 | 1.6 | 9.7 | 0.00 | 0.66 | 0.00 | 39 | 1010.7 |
| 20260505194535 | 16 | 120 | 4.8 | 16.1 | 0.00 | 0.66 | 0.00 | 44 | 1011.0 |
| 20260505193041 | 16 | 129 | 1.6 | 12.9 | 0.00 | 0.66 | 0.00 | 44 | 1011.0 |
| 20260505191535 | 16 | 36 | 0.0 | 14.5 | 0.00 | 0.66 | 0.00 | 45 | 1011.0 |
| 20260505190031 | 16 | 341 | 1.6 | 11.3 | 0.00 | 0.66 | 0.00 | 46 | 1010.9 |
| 20260505184527 | 15 | 161 | 3.2 | 11.3 | 0.00 | 0.66 | 0.00 | 50 | 1011.0 |
| 20260505183034 | 13 | 196 | 1.6 | 9.7 | 0.00 | 0.66 | 0.00 | 54 | 1011.1 |
| 20260505181519 | 13 | 261 | 0.0 | 6.4 | 0.00 | 0.66 | 0.00 | 52 | 1011.1 |
| 20260505180019 | 13 | 235 | 3.2 | 6.4 | 0.00 | 0.66 | 0.00 | 54 | 1011.0 |
| 20260505174515 | 13 | 16 | 1.6 | 11.3 | 0.00 | 0.66 | 0.00 | 53 | 1010.9 |
| 20260505173013 | 12 | 317 | 3.2 | 12.9 | 0.00 | 0.66 | 0.00 | 54 | 1010.7 |
| 20260505171510 | 12 | 249 | 3.2 | 14.5 | 0.00 | 0.66 | 0.00 | 55 | 1010.7 |
| 20260505170005 | 12 | 284 | 3.2 | 11.3 | 0.00 | 0.66 | 0.00 | 58 | 1010.5 |
| 20260505164604 | 11 | 276 | 6.4 | 12.9 | 0.00 | 0.69 | 0.00 | 58 | 1010.5 |
| 20260505163056 | 11 | 134 | 0.0 | 0.0 | 0.00 | 0.69 | 0.00 | 60 | 1010.5 |
| 20260505161556 | 10 | 267 | 0.0 | 0.0 | 0.00 | 0.69 | 0.00 | 61 | 1010.4 |
| 20260505153050 | 9 | 248 | 0.0 | 3.2 | 0.00 | 0.69 | 0.00 | 64 | 1010.1 |
| 20260505151536 | 8 | 259 | 0.0 | 3.2 | 0.00 | 0.69 | 0.00 | 65 | 1009.9 |
| 20260505124523 | 7 | 295 | 9.7 | 19.3 | 0.00 | 0.69 | 0.00 | 65 | 1008.4 |
| 20260505123013 | 7 | 289 | 8.0 | 19.3 | 0.00 | 0.69 | 0.00 | 66 | 1008.5 |
| 20260505121514 | 7 | 268 | 9.7 | 17.7 | 0.00 | 0.69 | 0.00 | 66 | 1008.5 |
| 20260505120009 | 7 | 293 | 11.3 | 19.3 | 0.00 | 0.69 | 0.00 | 66 | 1008.5 |
| 20260505114511 | 7 | 336 | 8.0 | 16.1 | 0.00 | 0.69 | 0.00 | 66 | 1008.5 |
| 20260505113010 | 7 | 290 | 8.0 | 16.1 | 0.00 | 0.69 | 0.00 | 66 | 1008.5 |
| 20260505111512 | 7 | 315 | 8.0 | 20.9 | 0.00 | 0.69 | 0.00 | 66 | 1008.5 |
| 20260505101503 | 7 | 274 | 4.8 | 11.3 | 0.00 | 0.69 | 0.00 | 67 | 1008.7 |
| 20260505100057 | 7 | 267 | 4.8 | 12.9 | 0.00 | 0.69 | 0.00 | 67 | 1008.7 |
| 20260505094557 | 6 | 296 | 4.8 | 11.3 | 0.00 | 0.69 | 0.00 | 68 | 1008.8 |
| 20260505093104 | 6 | 277 | 6.4 | 17.7 | 0.00 | 0.69 | 0.00 | 68 | 1008.7 |
| 20260505091554 | 6 | 304 | 4.8 | 12.9 | 0.00 | 0.69 | 0.00 | 69 | 1008.8 |
| 20260505090053 | 6 | 290 | 4.8 | 11.3 | 0.00 | 0.69 | 0.00 | 69 | 1008.6 |
| 20260505084553 | 6 | 336 | 4.8 | 19.3 | 0.00 | 0.69 | 0.00 | 69 | 1008.8 |
| 20260505083053 | 6 | 306 | 8.0 | 17.7 | 0.00 | 0.69 | 0.00 | 70 | 1008.8 |
| 20260505081551 | 6 | 305 | 11.3 | 22.5 | 0.00 | 0.69 | 0.00 | 70 | 1008.9 |
| 20260505080048 | 6 | 216 | 0.0 | 6.4 | 0.00 | 0.69 | 0.00 | 71 | 1009.1 |
| 20260505074540 | 6 | 242 | 0.0 | 4.8 | 0.00 | 0.69 | 0.00 | 71 | 1009.3 |
| 20260505073037 | 6 | 250 | 6.4 | 11.3 | 0.00 | 0.69 | 0.00 | 71 | 1008.8 |
| 20260505071530 | 6 | 211 | 0.0 | 4.8 | 0.00 | 0.69 | 0.00 | 71 | 1009.4 |
| 20260505070039 | 6 | 267 | 1.6 | 4.8 | 0.03 | 0.69 | 0.00 | 71 | 1009.0 |
| 20260505064524 | 6 | 331 | 0.0 | 14.5 | 0.03 | 0.69 | 0.69 | 71 | 1008.8 |
| 20260505063031 | 6 | 140 | 0.0 | 6.4 | 0.05 | 0.69 | 0.69 | 70 | 1008.7 |
| 20260505061526 | 6 | 144 | 0.0 | 9.7 | 0.08 | 0.69 | 0.69 | 69 | 1008.1 |
| 20260505060023 | 7 | 229 | 4.8 | 17.7 | 0.08 | 0.66 | 0.66 | 68 | 1008.2 |
| 20260505054519 | 7 | 252 | 11.3 | 20.9 | 0.10 | 0.66 | 0.66 | 69 | 1008.2 |
| 20260505053020 | 7 | 271 | 16.1 | 32.2 | 0.10 | 0.64 | 0.64 | 69 | 1008.2 |
| 20260505051518 | 7 | 275 | 14.5 | 25.7 | 0.10 | 0.61 | 0.61 | 71 | 1008.1 |
| 20260505041508 | 7 | 122 | 1.6 | 16.1 | 0.13 | 0.51 | 0.51 | 75 | 1008.1 |
| 20260505040006 | 7 | 260 | 4.8 | 14.5 | 0.13 | 0.48 | 0.48 | 76 | 1007.7 |
| 20260505034504 | 7 | 10 | 4.8 | 17.7 | 0.13 | 0.46 | 0.46 | 76 | 1008.0 |
| 20260505033005 | 7 | 41 | 6.4 | 14.5 | 0.13 | 0.41 | 0.41 | 75 | 1007.8 |
| 20260505031503 | 7 | 33 | 4.8 | 8.0 | 0.13 | 0.38 | 0.38 | 72 | 1007.5 |
| 20260505030005 | 7 | 169 | 6.4 | 11.3 | 0.13 | 0.36 | 0.36 | 72 | 1007.2 |
| 20260505024600 | 7 | 221 | 1.6 | 6.4 | 0.15 | 0.33 | 0.33 | 71 | 1007.0 |
| 20260505024502 | 7 | 238 | 1.6 | 6.4 | 0.15 | 0.33 | 0.33 | 71 | 1006.8 |
| 20260505023103 | 7 | 26 | 0.0 | 11.3 | 0.13 | 0.28 | 0.28 | 70 | 1008.0 |
| 20260505021600 | 7 | 284 | 9.7 | 16.1 | 0.15 | 0.25 | 0.25 | 70 | 1007.1 |
| 20260505021502 | 7 | 327 | 9.7 | 16.1 | 0.15 | 0.25 | 0.25 | 69 | 1007.1 |